createdAt,value
2023-02-08T00:01:44.052Z,17.23
2023-02-08T00:04:10.442Z,17.88
2023-02-08T00:06:36.788Z,17.95
2023-02-08T00:09:03.772Z,17.15
2023-02-08T00:11:30.165Z,15.95
2023-02-08T00:13:56.534Z,16.13
2023-02-08T00:16:23.003Z,14.77
2023-02-08T00:18:49.448Z,15.68
2023-02-08T00:21:17.183Z,15.52
2023-02-08T00:23:44.092Z,16.52
2023-02-08T00:26:10.866Z,15.77
2023-02-08T00:28:37.373Z,15.73
2023-02-08T00:31:04.346Z,18.17
2023-02-08T00:33:30.917Z,17.27
2023-02-08T00:36:06.007Z,18.00
2023-02-08T00:38:32.433Z,17.52
2023-02-08T00:40:58.774Z,16.33
2023-02-08T00:43:25.392Z,16.42
2023-02-08T00:45:56.123Z,19.33
2023-02-08T00:48:22.586Z,19.10
2023-02-08T00:50:58.201Z,16.73
2023-02-08T00:53:24.760Z,18.70
2023-02-08T00:55:55.166Z,20.08
2023-02-08T00:58:22.696Z,20.00
2023-02-08T01:00:52.510Z,18.77
2023-02-08T01:03:20.212Z,17.48
2023-02-08T01:05:46.732Z,17.80
2023-02-08T01:08:13.178Z,17.13
2023-02-08T01:10:39.864Z,17.98
2023-02-08T01:13:06.443Z,17.98
2023-02-08T01:15:33.091Z,15.63
2023-02-08T01:17:59.630Z,17.10
2023-02-08T01:20:26.068Z,15.20
2023-02-08T01:22:52.699Z,14.30
2023-02-08T01:25:19.189Z,13.98
2023-02-08T01:27:45.597Z,14.27
2023-02-08T01:30:12.656Z,14.55
2023-02-08T01:32:39.085Z,14.38
2023-02-08T01:35:05.898Z,14.52
2023-02-08T01:37:32.266Z,14.73
2023-02-08T01:39:58.687Z,15.68
2023-02-08T01:42:25.234Z,14.73
2023-02-08T01:45:17.581Z,14.27
2023-02-08T01:47:47.033Z,14.07
2023-02-08T01:50:15.554Z,14.00
2023-02-08T01:52:44.566Z,13.73
2023-02-08T01:55:38.514Z,12.30
2023-02-08T01:58:08.993Z,12.38
2023-02-08T02:00:35.588Z,11.40
2023-02-08T02:03:04.705Z,11.23
2023-02-08T02:05:38.208Z,10.73
2023-02-08T02:08:05.034Z,11.05
2023-02-08T02:10:34.234Z,10.43
2023-02-08T02:13:09.337Z,10.85
2023-02-08T02:15:35.999Z,9.98
2023-02-08T02:18:04.958Z,11.25
2023-02-08T02:20:45.160Z,9.90
2023-02-08T02:23:30.335Z,9.93
2023-02-08T02:26:25.150Z,10.45
2023-02-08T02:29:09.920Z,9.82
2023-02-08T02:31:59.831Z,10.35
2023-02-08T02:34:34.842Z,10.32
2023-02-08T02:37:04.156Z,10.70
2023-02-08T02:39:41.629Z,9.85
2023-02-08T02:42:26.963Z,9.68
2023-02-08T02:45:10.301Z,10.93
2023-02-08T02:47:53.525Z,10.25
2023-02-08T02:51:02.595Z,10.43
2023-02-08T02:53:34.013Z,9.77
2023-02-08T02:56:12.241Z,10.25
2023-02-08T02:58:40.920Z,10.15
2023-02-08T03:01:07.438Z,10.50
2023-02-08T03:03:34.960Z,10.73
2023-02-08T03:06:06.266Z,10.52
2023-02-08T03:08:55.920Z,9.82
2023-02-08T03:11:26.471Z,10.50
2023-02-08T03:14:12.692Z,10.13
2023-02-08T03:17:02.430Z,9.45
2023-02-08T03:19:53.287Z,9.90
2023-02-08T03:22:34.949Z,9.85
2023-02-08T03:25:31.325Z,8.65
2023-02-08T03:28:11.036Z,9.45
2023-02-08T03:30:53.559Z,9.10
2023-02-08T03:33:36.768Z,10.98
2023-02-08T03:36:08.664Z,9.43
2023-02-08T03:38:41.378Z,9.80
2023-02-08T03:41:11.781Z,9.27
2023-02-08T03:43:44.917Z,10.07
2023-02-08T03:46:24.661Z,9.13
2023-02-08T03:49:05.172Z,9.40
2023-02-08T03:51:34.390Z,10.35
2023-02-08T03:54:05.793Z,10.40
2023-02-08T03:56:41.776Z,9.68
2023-02-08T03:59:18.321Z,9.40
2023-02-08T04:01:49.870Z,9.15
2023-02-08T04:04:20.236Z,10.05
2023-02-08T04:06:46.711Z,9.32
2023-02-08T04:09:13.236Z,10.00
2023-02-08T04:11:39.660Z,9.93
2023-02-08T04:14:06.053Z,8.75
2023-02-08T04:16:32.431Z,9.50
2023-02-08T04:18:58.861Z,9.88
2023-02-08T04:21:25.388Z,9.52
2023-02-08T04:23:51.832Z,9.52
2023-02-08T04:26:18.271Z,9.68
2023-02-08T04:28:44.955Z,9.15
2023-02-08T04:31:11.537Z,9.18
2023-02-08T04:33:38.032Z,9.77
2023-02-08T04:36:04.985Z,9.77
2023-02-08T04:38:31.457Z,10.13
2023-02-08T04:40:57.983Z,10.15
2023-02-08T04:43:24.421Z,10.73
2023-02-08T04:45:51.268Z,10.32
2023-02-08T04:48:18.778Z,10.10
2023-02-08T04:50:45.251Z,10.52
2023-02-08T04:53:15.074Z,11.27
2023-02-08T04:55:41.542Z,10.90
2023-02-08T04:58:08.018Z,10.48
2023-02-08T05:00:34.486Z,10.52
2023-02-08T05:03:00.969Z,11.18
2023-02-08T05:05:28.399Z,11.02
2023-02-08T05:07:54.849Z,10.75
2023-02-08T05:10:21.596Z,9.77
2023-02-08T05:12:48.197Z,9.73
2023-02-08T05:15:14.902Z,10.20
2023-02-08T05:17:41.397Z,10.20
2023-02-08T05:20:08.896Z,9.43
2023-02-08T05:22:35.622Z,9.63
2023-02-08T05:25:02.449Z,9.82
2023-02-08T05:27:28.986Z,9.48
2023-02-08T05:29:57.129Z,8.82
2023-02-08T05:32:25.165Z,9.23
2023-02-08T05:34:51.585Z,9.05
2023-02-08T05:37:18.016Z,9.55
2023-02-08T05:39:44.535Z,9.25
2023-02-08T05:42:11.397Z,11.07
2023-02-08T05:44:38.253Z,9.70
2023-02-08T05:47:05.004Z,9.85
2023-02-08T05:49:31.504Z,10.43
2023-02-08T05:52:00.589Z,9.70
2023-02-08T05:54:27.453Z,9.88
2023-02-08T05:56:54.270Z,9.15
2023-02-08T05:59:20.786Z,9.30
2023-02-08T06:05:02.369Z,8.52
2023-02-08T06:07:29.687Z,8.48
2023-02-08T06:09:56.063Z,8.82
2023-02-08T06:12:22.390Z,8.00
2023-02-08T06:14:48.835Z,9.93
2023-02-08T06:17:15.316Z,10.75
2023-02-08T06:19:41.640Z,9.27
2023-02-08T06:22:07.996Z,9.57
2023-02-08T06:24:34.358Z,8.25
2023-02-08T06:27:00.732Z,9.75
2023-02-08T06:29:27.107Z,9.68
2023-02-08T06:31:53.615Z,9.25
2023-02-08T06:34:20.151Z,9.82
2023-02-08T06:36:46.670Z,9.25
2023-02-08T06:39:13.067Z,9.00
2023-02-08T06:41:39.496Z,8.80
2023-02-08T06:44:05.884Z,9.10
2023-02-08T06:46:32.298Z,9.35
2023-02-08T06:49:00.250Z,8.98
2023-02-08T06:51:27.411Z,8.52
2023-02-08T06:53:53.827Z,8.93
2023-02-08T06:56:20.212Z,8.52
2023-02-08T06:58:46.706Z,8.55
2023-02-08T07:01:14.230Z,10.15
2023-02-08T07:03:41.267Z,9.57
2023-02-08T07:06:19.336Z,11.18
2023-02-08T07:08:47.036Z,11.55
2023-02-08T07:11:18.633Z,10.95
2023-02-08T07:13:47.821Z,10.82
2023-02-08T07:16:14.669Z,10.65
2023-02-08T07:18:41.222Z,10.75
2023-02-08T07:21:07.732Z,10.80
2023-02-08T07:23:34.391Z,10.60
2023-02-08T07:26:04.078Z,10.35
2023-02-08T07:28:30.869Z,10.88
2023-02-08T07:30:57.800Z,11.52
2023-02-08T07:33:25.118Z,11.07
2023-02-08T07:35:51.577Z,10.77
2023-02-08T07:38:20.599Z,11.10
2023-02-08T07:40:47.168Z,10.75
2023-02-08T07:43:13.512Z,10.90
2023-02-08T07:45:40.539Z,10.88
2023-02-08T07:48:07.073Z,11.07
2023-02-08T07:50:33.516Z,10.32
2023-02-08T07:52:59.921Z,9.63
2023-02-08T07:55:27.542Z,10.43
2023-02-08T07:57:56.717Z,9.50
2023-02-08T08:00:23.551Z,9.07
2023-02-08T08:02:51.058Z,9.35
2023-02-08T08:05:17.457Z,8.90
2023-02-08T08:07:43.856Z,8.45
2023-02-08T08:10:10.304Z,8.00
2023-02-08T08:12:36.669Z,8.40
2023-02-08T08:15:03.220Z,8.00
2023-02-08T08:17:30.128Z,7.40
2023-02-08T08:19:56.619Z,7.72
2023-02-08T08:22:22.985Z,8.43
2023-02-08T08:24:49.384Z,7.95
2023-02-08T08:27:15.830Z,7.85
2023-02-08T08:29:42.249Z,6.88
2023-02-08T08:32:11.501Z,7.57
2023-02-08T08:34:38.186Z,7.50
2023-02-08T08:37:04.561Z,7.28
2023-02-08T08:39:32.032Z,8.15
2023-02-08T08:41:59.906Z,8.35
2023-02-08T08:44:26.615Z,7.53
2023-02-08T08:47:00.601Z,7.78
2023-02-08T08:49:28.419Z,8.43
2023-02-08T08:51:55.783Z,7.93
2023-02-08T08:54:22.402Z,7.72
2023-02-08T08:56:48.899Z,7.32
2023-02-08T08:59:15.286Z,7.95
2023-02-08T09:01:42.681Z,7.57
2023-02-08T09:04:10.147Z,7.57
2023-02-08T09:06:36.628Z,8.02
2023-02-08T09:09:03.567Z,8.20
2023-02-08T09:11:30.282Z,7.15
2023-02-08T09:13:56.665Z,8.05
2023-02-08T09:16:24.501Z,7.75
2023-02-08T09:18:51.088Z,7.85
2023-02-08T09:21:20.086Z,7.65
2023-02-08T09:23:49.829Z,7.50
2023-02-08T09:26:18.582Z,8.25
2023-02-08T09:28:45.191Z,8.55
2023-02-08T09:31:18.482Z,8.32
2023-02-08T09:33:44.949Z,7.55
2023-02-08T09:36:11.367Z,7.93
2023-02-08T09:38:38.466Z,8.25
2023-02-08T09:41:24.758Z,8.43
2023-02-08T09:44:13.018Z,8.88
2023-02-08T09:46:45.163Z,8.18
2023-02-08T09:49:20.012Z,8.25
2023-02-08T09:51:59.744Z,8.50
2023-02-08T09:54:39.392Z,8.55
2023-02-08T09:57:14.156Z,8.23
2023-02-08T10:00:12.429Z,8.60
2023-02-08T10:02:41.434Z,8.18
2023-02-08T10:05:16.766Z,8.20
2023-02-08T10:07:43.428Z,7.70
2023-02-08T10:10:33.405Z,8.20
2023-02-08T10:13:08.517Z,8.82
2023-02-08T10:15:51.514Z,8.15
2023-02-08T10:18:57.209Z,7.63
2023-02-08T10:21:42.136Z,7.45
2023-02-08T10:24:30.704Z,7.05
2023-02-08T10:27:10.628Z,7.47
2023-02-08T10:29:52.156Z,7.47
2023-02-08T10:32:51.527Z,6.97
2023-02-08T10:35:26.522Z,7.65
2023-02-08T10:37:54.040Z,8.10
2023-02-08T10:40:35.932Z,7.40
2023-02-08T10:43:32.641Z,7.75
2023-02-08T10:48:50.254Z,6.05
2023-02-08T10:51:18.766Z,6.53
2023-02-08T10:53:46.148Z,5.88
2023-02-08T10:56:41.735Z,5.90
2023-02-08T10:59:21.826Z,6.53
2023-02-08T11:01:50.234Z,6.28
2023-02-08T11:04:18.197Z,5.70
2023-02-08T11:06:45.902Z,6.32
2023-02-08T11:09:31.517Z,6.00
2023-02-08T11:12:00.508Z,6.47
2023-02-08T11:14:45.613Z,5.85
2023-02-08T11:17:28.787Z,6.45
2023-02-08T11:19:58.509Z,6.10
2023-02-08T11:22:27.682Z,5.90
2023-02-08T11:24:57.849Z,6.15
2023-02-08T11:27:33.964Z,5.95
2023-02-08T11:30:09.316Z,6.35
2023-02-08T11:32:36.740Z,5.70
2023-02-08T11:35:21.785Z,6.03
2023-02-08T11:37:50.122Z,5.82
2023-02-08T11:40:22.592Z,6.10
2023-02-08T11:42:49.849Z,5.78
2023-02-08T11:45:22.445Z,6.78
2023-02-08T11:47:50.173Z,5.90
2023-02-08T11:50:31.952Z,6.20
2023-02-08T11:53:01.306Z,5.63
2023-02-08T11:55:32.096Z,5.60
2023-02-08T11:58:02.130Z,6.30
2023-02-08T12:00:43.701Z,5.45
2023-02-08T12:03:18.323Z,5.63
2023-02-08T12:05:56.010Z,5.45
2023-02-08T12:08:36.699Z,5.68
2023-02-08T12:11:12.108Z,5.70
2023-02-08T12:13:59.849Z,6.30
2023-02-08T12:16:55.675Z,5.78
2023-02-08T12:19:57.921Z,5.93
2023-02-08T12:22:29.458Z,5.35
2023-02-08T12:25:18.375Z,5.25
2023-02-08T12:28:00.798Z,5.03
2023-02-08T12:30:59.367Z,5.68
2023-02-08T12:33:44.781Z,4.95
2023-02-08T12:36:34.103Z,5.20
2023-02-08T12:39:26.034Z,4.57
2023-02-08T12:41:52.696Z,4.82
2023-02-08T12:44:56.464Z,4.38
2023-02-08T12:47:39.387Z,5.40
2023-02-08T12:50:26.729Z,4.95
2023-02-08T12:53:00.865Z,5.22
2023-02-08T12:55:35.442Z,4.68
2023-02-08T12:58:26.588Z,4.85
2023-02-08T13:00:55.222Z,4.70
2023-02-08T13:03:24.342Z,4.63
2023-02-08T13:06:02.166Z,4.88
2023-02-08T13:08:50.278Z,4.50
2023-02-08T13:11:30.100Z,4.93
2023-02-08T13:14:34.181Z,4.57
2023-02-08T13:17:39.327Z,5.13
2023-02-08T13:20:05.837Z,4.65
2023-02-08T13:22:37.256Z,4.57
2023-02-08T13:25:08.455Z,5.05
2023-02-08T13:27:35.391Z,4.85
2023-02-08T13:30:02.465Z,5.05
2023-02-08T13:32:50.864Z,4.43
2023-02-08T13:35:23.721Z,4.43
2023-02-08T13:38:03.083Z,4.15
2023-02-08T13:40:35.485Z,4.00
2023-02-08T13:43:34.813Z,4.40
2023-02-08T13:46:02.689Z,3.70
2023-02-08T13:48:45.817Z,4.07
2023-02-08T13:51:33.387Z,3.80
2023-02-08T13:54:00.216Z,4.00
2023-02-08T13:56:40.558Z,3.78
2023-02-08T13:59:25.870Z,3.83
2023-02-08T14:02:19.092Z,3.70
2023-02-08T14:04:47.532Z,3.75
2023-02-08T14:07:14.244Z,3.78
2023-02-08T14:09:49.546Z,3.72
2023-02-08T14:12:21.329Z,3.80
2023-02-08T14:15:05.868Z,3.72
2023-02-08T14:17:32.915Z,3.40
2023-02-08T14:20:06.110Z,3.97
2023-02-08T14:22:40.611Z,3.42
2023-02-08T14:25:18.295Z,3.38
2023-02-08T14:28:03.203Z,3.85
2023-02-08T14:30:36.134Z,3.45
2023-02-08T14:33:07.229Z,3.33
2023-02-08T14:35:37.659Z,3.40
2023-02-08T14:38:19.042Z,2.97
2023-02-08T14:40:49.690Z,2.88
2023-02-08T14:43:18.792Z,3.30
2023-02-08T14:45:55.632Z,3.28
2023-02-08T14:48:35.109Z,3.40
2023-02-08T14:51:08.813Z,2.92
2023-02-08T14:53:54.004Z,2.85
2023-02-08T14:56:30.982Z,2.80
2023-02-08T14:59:01.538Z,2.70
2023-02-08T15:01:27.824Z,3.00
2023-02-08T15:04:02.150Z,2.22
2023-02-08T15:06:38.075Z,2.53
2023-02-08T15:09:12.343Z,3.05
2023-02-08T15:11:40.435Z,2.38
2023-02-08T15:14:07.291Z,2.70
2023-02-08T15:16:41.429Z,3.08
2023-02-08T15:19:09.440Z,3.75
2023-02-08T15:21:40.892Z,3.25
2023-02-08T15:24:19.188Z,2.83
2023-02-08T15:26:53.769Z,2.20
2023-02-08T15:29:42.898Z,2.70
2023-02-08T15:32:16.324Z,2.60
2023-02-08T15:34:44.533Z,2.67
2023-02-08T15:37:18.301Z,2.70
2023-02-08T15:39:48.918Z,2.75
2023-02-08T15:42:24.331Z,2.50
2023-02-08T15:44:51.819Z,2.45
2023-02-08T15:47:42.010Z,2.47
2023-02-08T15:50:18.007Z,3.55
2023-02-08T15:52:44.904Z,3.67
2023-02-08T15:55:17.928Z,3.10
2023-02-08T15:57:58.525Z,2.80
2023-02-08T16:00:31.470Z,2.40
2023-02-08T16:03:20.470Z,2.47
2023-02-08T16:06:02.884Z,2.15
2023-02-08T16:08:40.214Z,2.35
2023-02-08T16:11:20.427Z,2.35
2023-02-08T16:13:49.722Z,2.72
2023-02-08T16:16:16.261Z,3.45
2023-02-08T16:18:50.008Z,3.13
2023-02-08T16:21:35.144Z,2.90
2023-02-08T16:24:19.026Z,3.08
2023-02-08T16:26:58.875Z,2.72
2023-02-08T16:29:28.691Z,3.67
2023-02-08T16:32:03.553Z,2.90
2023-02-08T16:34:32.254Z,2.93
2023-02-08T16:36:59.661Z,3.20
2023-02-08T16:39:51.418Z,3.30
2023-02-08T16:42:30.135Z,3.15
2023-02-08T16:45:01.315Z,3.63
2023-02-08T16:47:42.624Z,4.88
2023-02-08T16:50:15.653Z,5.63
2023-02-08T16:52:42.257Z,5.82
2023-02-08T16:55:17.362Z,7.15
2023-02-08T16:57:47.961Z,6.30
2023-02-08T17:00:18.353Z,6.65
2023-02-08T17:02:44.946Z,6.85
2023-02-08T17:05:11.997Z,7.03
2023-02-08T17:07:38.715Z,6.43
2023-02-08T17:10:07.862Z,6.90
2023-02-08T17:12:34.311Z,7.53
2023-02-08T17:15:00.820Z,7.22
2023-02-08T17:17:27.691Z,8.55
2023-02-08T17:19:54.046Z,8.68
2023-02-08T17:22:20.397Z,9.10
2023-02-08T17:24:46.731Z,8.45
2023-02-08T17:27:14.159Z,8.35
2023-02-08T17:29:41.454Z,9.00
2023-02-08T17:32:07.884Z,9.57
2023-02-08T17:34:35.707Z,9.07
2023-02-08T17:37:02.677Z,8.48
2023-02-08T17:39:29.141Z,9.25
2023-02-08T17:41:55.497Z,9.65
2023-02-08T17:44:21.833Z,8.95
2023-02-08T17:46:48.230Z,10.05
2023-02-08T17:49:16.221Z,9.25
2023-02-08T17:51:42.602Z,9.95
2023-02-08T17:54:11.128Z,9.43
2023-02-08T17:56:37.772Z,10.25
2023-02-08T17:59:05.301Z,11.63
2023-02-08T18:01:32.248Z,15.55
2023-02-08T18:03:59.487Z,16.83
2023-02-08T18:06:26.292Z,17.60
2023-02-08T18:08:54.687Z,14.75
2023-02-08T18:11:23.214Z,12.65
2023-02-08T18:13:51.927Z,11.70
2023-02-08T18:16:26.913Z,9.55
2023-02-08T18:18:57.766Z,8.65
2023-02-08T18:21:30.142Z,7.72
2023-02-08T18:23:56.487Z,8.15
2023-02-08T18:26:25.107Z,8.68
2023-02-08T18:28:52.343Z,9.00
2023-02-08T18:31:20.519Z,8.23
2023-02-08T18:33:49.232Z,8.48
2023-02-08T18:36:16.916Z,8.23
2023-02-08T18:38:45.604Z,7.95
2023-02-08T18:41:18.589Z,7.38
2023-02-08T18:43:45.694Z,8.02
2023-02-08T18:46:14.447Z,7.35
2023-02-08T18:48:42.104Z,8.13
2023-02-08T18:51:10.634Z,7.43
2023-02-08T18:53:39.785Z,6.72
2023-02-08T18:56:07.753Z,7.47
2023-02-08T18:58:34.691Z,7.68
2023-02-08T19:01:16.183Z,7.30
2023-02-08T19:03:44.745Z,8.57
2023-02-08T19:06:14.409Z,8.32
2023-02-08T19:08:41.640Z,8.45
2023-02-08T19:11:18.628Z,7.72
2023-02-08T19:13:45.550Z,7.55
2023-02-08T19:16:13.019Z,7.75
2023-02-08T19:18:40.304Z,7.78
2023-02-08T19:21:09.580Z,8.25
2023-02-08T19:23:36.345Z,8.55
2023-02-08T19:26:05.306Z,8.73
2023-02-08T19:28:35.849Z,7.75
2023-02-08T19:31:10.821Z,7.53
2023-02-08T19:33:42.765Z,7.72
2023-02-08T19:36:20.346Z,7.78
2023-02-08T19:38:50.320Z,7.30
2023-02-08T19:41:23.740Z,7.32
2023-02-08T19:43:51.719Z,7.00
2023-02-08T19:46:22.193Z,7.90
2023-02-08T19:48:53.927Z,7.25
2023-02-08T19:51:20.608Z,7.50
2023-02-08T19:53:47.529Z,6.85
2023-02-08T19:56:18.807Z,7.30
2023-02-08T19:58:46.721Z,7.00
2023-02-08T20:01:18.972Z,7.47
2023-02-08T20:03:46.380Z,7.13
2023-02-08T20:06:15.268Z,7.65
2023-02-08T20:08:41.726Z,8.10
2023-02-08T20:11:16.679Z,6.57
2023-02-08T20:13:43.147Z,7.60
2023-02-08T20:16:09.569Z,7.47
2023-02-08T20:18:35.940Z,8.02
2023-02-08T20:21:03.070Z,7.25
2023-02-08T20:23:30.422Z,7.55
2023-02-08T20:26:05.457Z,8.10
2023-02-08T20:28:31.801Z,7.43
2023-02-08T20:30:58.389Z,7.32
2023-02-08T20:33:24.870Z,7.70
2023-02-08T20:35:51.293Z,8.63
2023-02-08T20:38:17.722Z,7.60
2023-02-08T20:40:44.376Z,7.05
2023-02-08T20:43:10.901Z,7.53
2023-02-08T20:45:40.782Z,6.75
2023-02-08T20:48:07.235Z,6.60
2023-02-08T20:50:34.085Z,5.88
2023-02-08T20:53:00.439Z,6.38
2023-02-08T20:55:27.065Z,6.40
2023-02-08T20:57:53.417Z,6.32
2023-02-08T21:00:40.126Z,6.15
2023-02-08T21:03:12.837Z,6.13
2023-02-08T21:05:39.673Z,6.53
2023-02-08T21:08:06.008Z,6.15
2023-02-08T21:10:35.971Z,6.68
2023-02-08T21:13:02.405Z,6.68
2023-02-08T21:15:28.845Z,6.40
2023-02-08T21:17:55.305Z,6.15
2023-02-08T21:20:21.707Z,6.43
2023-02-08T21:22:48.090Z,6.38
2023-02-08T21:25:14.549Z,5.85
2023-02-08T21:27:41.067Z,6.03
2023-02-08T21:30:08.124Z,6.20
2023-02-08T21:32:34.512Z,6.28
2023-02-08T21:35:00.864Z,6.50
2023-02-08T21:37:27.188Z,6.30
2023-02-08T21:39:53.577Z,6.35
2023-02-08T21:42:19.993Z,6.82
2023-02-08T21:44:46.335Z,6.85
2023-02-08T21:47:12.669Z,6.72
2023-02-08T21:49:57.608Z,7.15
2023-02-08T21:52:42.401Z,6.55
2023-02-08T21:55:08.752Z,6.35
2023-02-08T21:57:39.785Z,6.00
2023-02-08T22:00:08.278Z,6.38
2023-02-08T22:02:34.691Z,6.68
2023-02-08T22:05:02.053Z,6.07
2023-02-08T22:07:29.134Z,6.40
2023-02-08T22:09:55.579Z,6.63
2023-02-08T22:12:23.289Z,6.22
2023-02-08T22:14:51.063Z,6.68
2023-02-08T22:17:18.021Z,6.60
2023-02-08T22:19:44.452Z,7.13
2023-02-08T22:22:11.893Z,7.20
2023-02-08T22:24:38.367Z,8.32
2023-02-08T22:27:05.032Z,6.60
2023-02-08T22:29:31.464Z,6.55
2023-02-08T22:31:58.030Z,7.95
2023-02-08T22:34:26.682Z,7.88
2023-02-08T22:36:53.296Z,8.07
2023-02-08T22:39:19.767Z,8.02
2023-02-08T22:41:46.143Z,8.73
2023-02-08T22:44:12.819Z,8.68
2023-02-08T22:46:39.208Z,8.98
2023-02-08T22:49:05.557Z,8.02
2023-02-08T22:51:31.976Z,8.27
2023-02-08T22:53:58.528Z,8.88
2023-02-08T22:56:24.876Z,7.65
2023-02-08T22:58:51.245Z,8.00
2023-02-08T23:01:17.940Z,7.55
2023-02-08T23:03:44.362Z,6.65
2023-02-08T23:06:14.796Z,7.20
2023-02-08T23:08:42.560Z,6.60
2023-02-08T23:11:12.176Z,7.28
2023-02-08T23:13:38.567Z,6.50
2023-02-08T23:16:05.292Z,6.22
2023-02-08T23:18:31.689Z,6.43
2023-02-08T23:20:58.047Z,6.68
2023-02-08T23:23:24.525Z,6.80
2023-02-08T23:25:50.857Z,6.88
2023-02-08T23:28:17.307Z,6.93
2023-02-08T23:30:44.465Z,6.88
2023-02-08T23:33:11.051Z,7.38
2023-02-08T23:35:41.608Z,7.78
2023-02-08T23:38:08.648Z,6.82
2023-02-08T23:40:35.152Z,6.95
2023-02-08T23:43:01.592Z,7.05
2023-02-08T23:45:28.646Z,7.75
2023-02-08T23:47:55.018Z,7.30
2023-02-08T23:50:21.336Z,8.02
2023-02-08T23:52:47.718Z,6.82
2023-02-08T23:55:14.308Z,7.28
2023-02-08T23:57:40.736Z,7.35
